createdAt,value
2023-05-06T00:00:41.031Z,100456.97
2023-05-06T00:03:44.148Z,100463.38
2023-05-06T00:06:47.239Z,100457.59
2023-05-06T00:09:49.707Z,100464.19
2023-05-06T00:12:52.194Z,100457.22
2023-05-06T00:15:54.763Z,100465.84
2023-05-06T00:19:06.264Z,100468.13
2023-05-06T00:22:09.060Z,100465.44
2023-05-06T00:25:11.791Z,100467.50
2023-05-06T00:28:14.424Z,100463.38
2023-05-06T00:31:17.036Z,100470.16
2023-05-06T00:34:19.584Z,100473.66
2023-05-06T00:37:22.219Z,100479.63
2023-05-06T00:40:24.855Z,100475.50
2023-05-06T00:43:27.382Z,100476.53
2023-05-06T00:46:30.404Z,100476.53
2023-05-06T00:49:33.052Z,100470.97
2023-05-06T00:52:35.871Z,100466.06
2023-05-06T00:55:39.925Z,100467.47
2023-05-06T00:58:42.376Z,100466.66
2023-05-06T01:01:45.000Z,100465.41
2023-05-06T01:04:47.619Z,100456.56
2023-05-06T01:08:17.655Z,100464.59
2023-05-06T01:11:26.613Z,100461.13
2023-05-06T01:14:39.742Z,100465.03
2023-05-06T01:17:45.465Z,100467.06
2023-05-06T01:20:51.040Z,100456.97
2023-05-06T01:23:58.420Z,100456.13
2023-05-06T01:27:01.530Z,100454.72
2023-05-06T01:30:04.675Z,100442.34
2023-05-06T01:33:24.042Z,100442.16
2023-05-06T01:36:34.129Z,100442.97
2023-05-06T01:39:38.166Z,100447.31
2023-05-06T01:42:41.387Z,100438.44
2023-05-06T01:45:49.506Z,100436.41
2023-05-06T01:48:55.202Z,100437.81
2023-05-06T01:51:58.820Z,100439.03
2023-05-06T01:55:01.442Z,100435.53
2023-05-06T01:58:04.249Z,100422.56
2023-05-06T02:01:06.716Z,100434.09
2023-05-06T02:04:09.432Z,100435.94
2023-05-06T02:07:11.983Z,100444.38
2023-05-06T02:10:14.667Z,100441.09
2023-05-06T02:13:22.153Z,100438.84
2023-05-06T02:16:29.118Z,100448.88
2023-05-06T02:19:32.166Z,100452.16
2023-05-06T02:22:34.677Z,100450.50
2023-05-06T02:25:37.292Z,100449.06
2023-05-06T02:28:40.022Z,100442.06
2023-05-06T02:31:42.772Z,100444.53
2023-05-06T02:34:45.424Z,100453.31
2023-05-06T02:37:47.882Z,100452.31
2023-05-06T02:40:50.402Z,100452.13
2023-05-06T02:43:52.955Z,100457.44
2023-05-06T02:46:55.589Z,100452.09
2023-05-06T02:49:58.353Z,100457.25
2023-05-06T02:53:00.889Z,100459.53
2023-05-06T02:56:03.570Z,100467.16
2023-05-06T02:59:06.129Z,100462.44
2023-05-06T03:02:08.611Z,100466.34
2023-05-06T03:05:11.370Z,100468.78
2023-05-06T03:08:14.145Z,100463.03
2023-05-06T03:11:17.105Z,100460.53
2023-05-06T03:14:19.815Z,100452.03
2023-05-06T03:17:22.423Z,100445.88
2023-05-06T03:20:28.835Z,100453.88
2023-05-06T03:23:33.477Z,100452.22
2023-05-06T03:26:36.451Z,100450.50
2023-05-06T03:29:39.770Z,100441.66
2023-05-06T03:32:44.991Z,100438.84
2023-05-06T03:35:51.694Z,100431.50
2023-05-06T03:38:54.717Z,100424.75
2023-05-06T03:41:57.718Z,100427.03
2023-05-06T03:45:01.242Z,100418.66
2023-05-06T03:48:07.045Z,100426.88
2023-05-06T03:51:13.159Z,100431.19
2023-05-06T03:54:16.154Z,100429.34
2023-05-06T03:57:18.955Z,100430.16
2023-05-06T04:00:21.762Z,100437.81
2023-05-06T04:03:28.659Z,100444.63
2023-05-06T04:06:31.622Z,100444.41
2023-05-06T04:09:34.308Z,100453.06
2023-05-06T04:12:41.426Z,100462.94
2023-05-06T04:15:44.808Z,100470.13
2023-05-06T04:18:53.398Z,100472.19
2023-05-06T04:21:56.536Z,100457.16
2023-05-06T04:25:02.264Z,100472.84
2023-05-06T04:28:06.729Z,100478.56
2023-05-06T04:31:10.645Z,100477.75
2023-05-06T04:34:27.809Z,100474.06
2023-05-06T04:37:34.296Z,100480.25
2023-05-06T04:40:45.101Z,100482.72
2023-05-06T04:43:48.183Z,100471.81
2023-05-06T04:46:56.224Z,100474.47
2023-05-06T04:49:59.028Z,100476.72
2023-05-06T04:53:02.824Z,100479.84
2023-05-06T04:56:05.513Z,100485.38
2023-05-06T04:59:09.170Z,100485.53
2023-05-06T05:02:11.765Z,100489.22
2023-05-06T05:05:16.979Z,100500.28
2023-05-06T05:08:23.134Z,100504.56
2023-05-06T05:11:27.315Z,100503.28
2023-05-06T05:14:37.638Z,100506.38
2023-05-06T05:17:40.616Z,100509.03
2023-05-06T05:20:44.722Z,100503.31
2023-05-06T05:23:49.335Z,100504.44
2023-05-06T05:26:52.050Z,100506.44
2023-05-06T05:29:54.689Z,100496.09
2023-05-06T05:32:57.523Z,100495.41
2023-05-06T05:36:00.458Z,100495.09
2023-05-06T05:39:04.977Z,100492.13
2023-05-06T05:42:10.620Z,100496.13
2023-05-06T05:45:15.651Z,100491.25
2023-05-06T05:48:18.256Z,100496.81
2023-05-06T05:51:21.914Z,100495.56
2023-05-06T05:54:25.594Z,100492.72
2023-05-06T05:57:28.184Z,100499.81
2023-05-06T06:00:30.808Z,100493.38
2023-05-06T06:03:41.875Z,100499.13
2023-05-06T06:06:44.633Z,100495.44
2023-05-06T06:09:48.919Z,100487.66
2023-05-06T06:12:52.503Z,100488.94
2023-05-06T06:15:58.719Z,100487.53
2023-05-06T06:19:01.314Z,100487.13
2023-05-06T06:22:04.786Z,100490.81
2023-05-06T06:25:10.230Z,100488.56
2023-05-06T06:28:13.354Z,100486.50
2023-05-06T06:31:17.593Z,100481.94
2023-05-06T06:34:20.190Z,100492.84
2023-05-06T06:37:22.764Z,100496.91
2023-05-06T06:40:25.598Z,100477.53
2023-05-06T06:43:28.167Z,100487.06
2023-05-06T06:46:30.624Z,100479.91
2023-05-06T06:49:33.633Z,100475.69
2023-05-06T06:52:36.227Z,100470.28
2023-05-06T06:55:39.056Z,100475.09
2023-05-06T06:58:41.994Z,100473.56
2023-05-06T07:01:45.094Z,100473.38
2023-05-06T07:04:47.986Z,100472.06
2023-05-06T07:07:50.428Z,100463.09
2023-05-06T07:10:53.025Z,100470.44
2023-05-06T07:13:55.626Z,100473.56
2023-05-06T07:16:58.333Z,100475.09
2023-05-06T07:20:00.949Z,100477.28
2023-05-06T07:23:03.682Z,100475.66
2023-05-06T07:26:06.441Z,100471.56
2023-05-06T07:29:09.221Z,100471.72
2023-05-06T07:32:11.877Z,100468.94
2023-05-06T07:35:14.824Z,100478.47
2023-05-06T07:38:17.354Z,100468.31
2023-05-06T07:41:20.176Z,100468.31
2023-05-06T07:44:23.057Z,100460.47
2023-05-06T07:47:28.932Z,100475.53
2023-05-06T07:50:31.915Z,100464.75
2023-05-06T07:53:34.723Z,100468.44
2023-05-06T07:56:37.327Z,100467.94
2023-05-06T07:59:39.856Z,100468.09
2023-05-06T08:02:46.736Z,100470.41
2023-05-06T08:05:53.215Z,100463.19
2023-05-06T08:08:56.016Z,100471.78
2023-05-06T08:11:59.021Z,100467.22
2023-05-06T08:15:02.872Z,100469.38
2023-05-06T08:18:20.904Z,100479.59
2023-05-06T08:21:25.199Z,100483.38
2023-05-06T08:24:28.516Z,100482.94
2023-05-06T08:27:31.168Z,100480.78
2023-05-06T08:30:33.798Z,100478.50
2023-05-06T08:33:36.518Z,100474.78
2023-05-06T08:36:39.171Z,100474.28
2023-05-06T08:39:41.692Z,100472.22
2023-05-06T08:42:47.899Z,100474.13
2023-05-06T08:45:50.813Z,100479.06
2023-05-06T08:48:53.783Z,100475.56
2023-05-06T08:51:57.212Z,100467.66
2023-05-06T08:55:05.044Z,100468.25
2023-05-06T08:58:08.497Z,100460.69
2023-05-06T09:01:11.247Z,100464.16
2023-05-06T09:04:14.381Z,100467.69
2023-05-06T09:07:16.957Z,100454.88
2023-05-06T09:10:19.975Z,100456.50
2023-05-06T09:13:22.701Z,100454.94
2023-05-06T09:16:30.018Z,100454.16
2023-05-06T09:19:32.713Z,100458.50
2023-05-06T09:22:39.121Z,100440.84
2023-05-06T09:25:43.757Z,100438.34
2023-05-06T09:28:47.221Z,100440.81
2023-05-06T09:31:51.215Z,100439.72
2023-05-06T09:34:54.588Z,100431.16
2023-05-06T09:37:57.228Z,100435.25
2023-05-06T09:40:59.751Z,100423.38
2023-05-06T09:44:02.545Z,100441.78
2023-05-06T09:47:06.291Z,100421.94
2023-05-06T09:50:09.477Z,100422.22
2023-05-06T09:53:13.310Z,100430.72
2023-05-06T09:56:16.425Z,100424.63
2023-05-06T09:59:21.163Z,100405.44
2023-05-06T10:02:23.989Z,100406.72
2023-05-06T10:05:28.988Z,100406.88
2023-05-06T10:08:35.138Z,100396.38
2023-05-06T10:11:38.827Z,100398.06
2023-05-06T10:14:41.354Z,100386.34
2023-05-06T10:17:48.981Z,100389.34
2023-05-06T10:20:53.654Z,100381.81
2023-05-06T10:24:09.344Z,100379.94
2023-05-06T10:27:12.676Z,100382.66
2023-05-06T10:30:19.307Z,100372.66
2023-05-06T10:33:24.757Z,100375.09
2023-05-06T10:36:32.166Z,100375.81
2023-05-06T10:39:34.867Z,100363.28
2023-05-06T10:42:37.655Z,100357.16
2023-05-06T10:46:15.463Z,100357.69
2023-05-06T10:49:20.063Z,100353.25
2023-05-06T10:52:43.315Z,100346.84
2023-05-06T10:55:45.787Z,100343.06
2023-05-06T10:58:48.683Z,100343.59
2023-05-06T11:02:03.079Z,100339.97
2023-05-06T11:05:05.978Z,100340.25
2023-05-06T11:08:12.498Z,100340.47
2023-05-06T11:11:48.768Z,100334.03
2023-05-06T11:14:51.365Z,100337.44
2023-05-06T11:17:55.858Z,100329.03
2023-05-06T11:21:01.596Z,100324.59
2023-05-06T11:24:04.045Z,100325.59
2023-05-06T11:27:07.078Z,100327.63
2023-05-06T11:30:14.919Z,100333.59
2023-05-06T11:33:23.746Z,100332.88
2023-05-06T11:36:28.398Z,100336.28
2023-05-06T11:39:40.523Z,100329.31
2023-05-06T11:42:43.500Z,100335.22
2023-05-06T11:45:48.356Z,100333.88
2023-05-06T11:48:51.136Z,100331.13
2023-05-06T11:51:55.395Z,100327.78
2023-05-06T11:54:57.941Z,100331.31
2023-05-06T11:58:00.400Z,100338.91
2023-05-06T12:01:04.398Z,100339.78
2023-05-06T12:04:07.261Z,100332.88
2023-05-06T12:07:11.903Z,100335.06
2023-05-06T12:10:15.803Z,100332.72
2023-05-06T12:13:20.027Z,100327.97
2023-05-06T12:16:24.208Z,100329.91
2023-05-06T12:19:26.880Z,100334.28
2023-05-06T12:22:30.034Z,100323.06
2023-05-06T12:25:36.966Z,100328.72
2023-05-06T12:28:42.624Z,100321.59
2023-05-06T12:31:49.670Z,100319.75
2023-05-06T12:34:52.435Z,100323.34
2023-05-06T12:37:55.607Z,100313.56
2023-05-06T12:40:58.417Z,100317.53
2023-05-06T12:44:01.034Z,100319.72
2023-05-06T12:47:05.009Z,100318.81
2023-05-06T12:50:08.023Z,100311.56
2023-05-06T12:53:15.846Z,100321.06
2023-05-06T12:56:20.447Z,100315.66
2023-05-06T12:59:28.481Z,100320.59
2023-05-06T13:02:31.179Z,100330.00
2023-05-06T13:05:33.695Z,100320.78
2023-05-06T13:08:36.600Z,100317.47
2023-05-06T13:11:39.058Z,100317.44
2023-05-06T13:14:41.613Z,100309.53
2023-05-06T13:17:44.413Z,100323.00
2023-05-06T13:20:47.142Z,100322.56
2023-05-06T13:23:49.742Z,100317.25
2023-05-06T13:26:52.670Z,100313.19
2023-05-06T13:29:55.230Z,100325.09
2023-05-06T13:32:57.930Z,100324.94
2023-05-06T13:36:01.545Z,100324.41
2023-05-06T13:39:05.388Z,100330.97
2023-05-06T13:42:08.575Z,100334.00
2023-05-06T13:45:11.391Z,100336.44
2023-05-06T13:48:14.358Z,100333.66
2023-05-06T13:51:17.019Z,100336.34
2023-05-06T13:54:19.522Z,100339.63
2023-05-06T13:57:24.414Z,100337.44
2023-05-06T14:00:27.171Z,100335.53
2023-05-06T14:03:30.135Z,100338.25
2023-05-06T14:06:32.663Z,100336.78
2023-05-06T14:09:35.879Z,100354.09
2023-05-06T14:12:38.624Z,100360.38
2023-05-06T14:15:41.139Z,100352.69
2023-05-06T14:18:43.830Z,100357.31
2023-05-06T14:21:46.362Z,100345.38
2023-05-06T14:24:49.008Z,100350.63
2023-05-06T14:27:51.647Z,100354.09
2023-05-06T14:30:54.271Z,100338.97
2023-05-06T14:33:56.765Z,100344.66
2023-05-06T14:36:59.187Z,100336.25
2023-05-06T14:40:01.966Z,100335.41
2023-05-06T14:43:06.468Z,100325.97
2023-05-06T14:46:09.090Z,100325.03
2023-05-06T14:49:11.936Z,100323.13
2023-05-06T14:52:14.461Z,100321.31
2023-05-06T14:55:17.291Z,100316.41
2023-05-06T14:58:19.794Z,100312.13
2023-05-06T15:01:22.417Z,100301.81
2023-05-06T15:04:25.477Z,100310.03
2023-05-06T15:07:27.899Z,100308.28
2023-05-06T15:10:30.383Z,100300.19
2023-05-06T15:13:32.898Z,100296.66
2023-05-06T15:16:36.055Z,100296.97
2023-05-06T15:19:38.700Z,100291.03
2023-05-06T15:22:41.333Z,100296.47
2023-05-06T15:25:43.845Z,100288.09
2023-05-06T15:28:46.430Z,100283.59
2023-05-06T15:31:49.100Z,100270.53
2023-05-06T15:34:51.664Z,100266.59
2023-05-06T15:37:58.988Z,100270.16
2023-05-06T15:41:01.693Z,100265.22
2023-05-06T15:44:06.070Z,100273.63
2023-05-06T15:47:09.306Z,100274.31
2023-05-06T15:50:21.218Z,100274.25
2023-05-06T15:53:28.996Z,100268.75
2023-05-06T15:56:39.440Z,100274.25
2023-05-06T15:59:43.768Z,100275.09
2023-05-06T16:02:46.677Z,100271.03
2023-05-06T16:05:49.342Z,100271.94
2023-05-06T16:08:51.802Z,100273.59
2023-05-06T16:11:55.000Z,100272.63
2023-05-06T16:14:58.609Z,100279.28
2023-05-06T16:18:01.647Z,100265.78
2023-05-06T16:21:04.635Z,100274.88
2023-05-06T16:24:07.236Z,100272.94
2023-05-06T16:27:09.764Z,100285.47
2023-05-06T16:30:12.729Z,100286.41
2023-05-06T16:33:15.735Z,100279.16
2023-05-06T16:36:18.245Z,100279.97
2023-05-06T16:39:20.866Z,100286.72
2023-05-06T16:42:25.579Z,100287.34
2023-05-06T16:45:28.103Z,100296.63
2023-05-06T16:48:30.728Z,100301.06
2023-05-06T16:51:33.409Z,100302.69
2023-05-06T16:54:35.986Z,100292.34
2023-05-06T16:57:38.471Z,100306.91
2023-05-06T17:00:41.590Z,100292.47
2023-05-06T17:03:44.077Z,100288.88
2023-05-06T17:06:46.672Z,100287.38
2023-05-06T17:09:49.209Z,100287.25
2023-05-06T17:12:51.734Z,100295.25
2023-05-06T17:15:54.251Z,100290.00
2023-05-06T17:18:56.883Z,100288.13
2023-05-06T17:21:59.296Z,100282.66
2023-05-06T17:25:02.169Z,100285.50
2023-05-06T17:28:05.724Z,100282.44
2023-05-06T17:31:08.541Z,100281.06
2023-05-06T17:34:11.229Z,100279.69
2023-05-06T17:37:13.704Z,100267.72
2023-05-06T17:40:16.465Z,100264.97
2023-05-06T17:43:19.308Z,100268.25
2023-05-06T17:46:21.961Z,100265.22
2023-05-06T17:49:24.549Z,100261.59
2023-05-06T17:52:27.081Z,100266.16
2023-05-06T17:55:29.600Z,100265.59
2023-05-06T17:58:32.281Z,100268.56
2023-05-06T18:01:34.884Z,100266.28
2023-05-06T18:04:37.853Z,100277.69
2023-05-06T18:07:41.094Z,100273.03
2023-05-06T18:10:43.833Z,100267.13
2023-05-06T18:13:46.356Z,100279.81
2023-05-06T18:16:48.891Z,100281.03
2023-05-06T18:19:52.491Z,100272.66
2023-05-06T18:22:54.941Z,100287.25
2023-05-06T18:25:57.531Z,100294.00
2023-05-06T18:29:01.891Z,100304.31
2023-05-06T18:32:06.528Z,100305.94
2023-05-06T18:35:10.940Z,100306.38
2023-05-06T18:38:15.356Z,100298.06
2023-05-06T18:41:17.981Z,100297.47
2023-05-06T18:44:20.650Z,100290.56
2023-05-06T18:47:25.688Z,100288.69
2023-05-06T18:50:28.325Z,100292.41
2023-05-06T18:53:30.890Z,100295.88
2023-05-06T18:56:33.468Z,100293.78
2023-05-06T18:59:36.356Z,100293.56
2023-05-06T19:02:38.872Z,100298.09
2023-05-06T19:05:41.325Z,100305.56
2023-05-06T19:08:43.838Z,100301.47
2023-05-06T19:11:46.790Z,100301.81
2023-05-06T19:14:49.654Z,100313.56
2023-05-06T19:17:52.140Z,100315.16
2023-05-06T19:20:55.886Z,100320.63
2023-05-06T19:24:00.823Z,100315.16
2023-05-06T19:27:03.428Z,100322.13
2023-05-06T19:30:06.792Z,100330.78
2023-05-06T19:33:09.460Z,100332.94
2023-05-06T19:36:12.166Z,100328.03
2023-05-06T19:39:16.363Z,100332.03
2023-05-06T19:42:18.940Z,100330.66
2023-05-06T19:45:21.648Z,100328.78
2023-05-06T19:48:24.396Z,100334.97
2023-05-06T19:51:28.364Z,100334.41
2023-05-06T19:54:31.256Z,100335.72
2023-05-06T19:57:34.008Z,100334.00
2023-05-06T20:00:36.714Z,100345.94
2023-05-06T20:03:39.347Z,100355.47
2023-05-06T20:06:42.153Z,100356.84
2023-05-06T20:09:44.663Z,100362.88
2023-05-06T20:12:47.316Z,100367.25
2023-05-06T20:15:49.933Z,100365.44
2023-05-06T20:18:53.543Z,100357.66
2023-05-06T20:21:56.941Z,100357.91
2023-05-06T20:25:17.475Z,100356.59
2023-05-06T20:28:20.152Z,100362.81
2023-05-06T20:31:22.795Z,100362.97
2023-05-06T20:34:25.927Z,100362.88
2023-05-06T20:37:28.881Z,100361.16
2023-05-06T20:40:31.590Z,100366.25
2023-05-06T20:43:35.329Z,100362.91
2023-05-06T20:46:37.872Z,100354.44
2023-05-06T20:49:40.362Z,100346.59
2023-05-06T20:52:45.672Z,100344.88
2023-05-06T20:55:48.335Z,100337.22
2023-05-06T20:58:54.490Z,100337.69
2023-05-06T21:01:57.069Z,100336.44
2023-05-06T21:04:59.543Z,100340.06
2023-05-06T21:08:14.736Z,100331.72
2023-05-06T21:11:17.547Z,100321.91
2023-05-06T21:14:21.776Z,100325.00
2023-05-06T21:17:24.367Z,100319.75
2023-05-06T21:20:27.055Z,100314.75
2023-05-06T21:23:29.931Z,100319.56
2023-05-06T21:26:32.600Z,100311.22
2023-05-06T21:29:35.282Z,100307.44
2023-05-06T21:32:38.019Z,100314.28
2023-05-06T21:35:40.614Z,100311.84
2023-05-06T21:38:43.133Z,100306.72
2023-05-06T21:41:46.186Z,100307.78
2023-05-06T21:44:48.894Z,100314.59
2023-05-06T21:47:51.495Z,100311.94
2023-05-06T21:50:58.016Z,100317.41
2023-05-06T21:54:02.983Z,100309.00
2023-05-06T21:57:08.105Z,100300.09
2023-05-06T22:00:12.396Z,100305.72
2023-05-06T22:03:15.220Z,100307.94
2023-05-06T22:06:17.816Z,100309.81
2023-05-06T22:09:23.505Z,100322.34
2023-05-06T22:12:26.313Z,100335.09
2023-05-06T22:15:29.082Z,100334.38
2023-05-06T22:18:32.125Z,100331.72
2023-05-06T22:21:35.244Z,100330.53
2023-05-06T22:24:37.911Z,100325.03
2023-05-06T22:27:40.518Z,100318.94
2023-05-06T22:30:43.120Z,100333.44
2023-05-06T22:33:47.595Z,100337.22
2023-05-06T22:36:50.056Z,100340.25
2023-05-06T22:39:55.368Z,100342.84
2023-05-06T22:42:57.924Z,100343.91
2023-05-06T22:46:00.450Z,100333.69
2023-05-06T22:49:03.446Z,100332.06
2023-05-06T22:52:06.337Z,100337.09
2023-05-06T22:55:09.850Z,100328.66
2023-05-06T22:58:12.707Z,100326.31
2023-05-06T23:01:15.315Z,100331.94
2023-05-06T23:04:18.038Z,100334.88
2023-05-06T23:07:20.514Z,100342.97
2023-05-06T23:10:23.019Z,100337.47
2023-05-06T23:13:26.734Z,100334.28
2023-05-06T23:16:29.864Z,100339.56
2023-05-06T23:19:32.820Z,100335.59
2023-05-06T23:22:35.714Z,100337.09
2023-05-06T23:25:38.324Z,100336.75
2023-05-06T23:28:40.972Z,100331.59
2023-05-06T23:31:43.464Z,100324.09
2023-05-06T23:34:47.528Z,100328.44
2023-05-06T23:37:50.041Z,100339.31
2023-05-06T23:40:52.650Z,100330.72
2023-05-06T23:43:55.827Z,100320.44
2023-05-06T23:46:58.322Z,100316.56
2023-05-06T23:50:01.384Z,100320.31
2023-05-06T23:53:04.432Z,100327.81
2023-05-06T23:56:07.575Z,100324.28
2023-05-06T23:59:10.166Z,100328.69
